Time;durP1;ratioP1;P1;durP2;ratioP2;P2;SDS_P1;SDS_P2;PMS_P1;PMS_P2;Temp;Humidity;BMP_temperature;BMP_pressure;BME280_temperature;BME280_humidity;BME280_pressure;Samples;Min_cycle;Max_cycle;Signal;HPM_P1;HPM_P2
2023/01/05 00:01:44;;;;;;;7.45;1.40;;;;;;;10.50;88.68;101771.38;5056235;27;100974;-29
2023/01/05 00:04:10;;;;;;;5.65;1.00;;;;;;;10.49;88.52;101776.91;5057369;27;96533;-29
2023/01/05 00:06:36;;;;;;;5.00;1.45;;;;;;;10.46;88.37;101774.31;5056604;27;96741;-29
2023/01/05 00:09:03;;;;;;;11.45;1.63;;;;;;;10.44;88.33;101777.09;5055054;27;100813;-29
2023/01/05 00:22:48;;;;;;;4.35;0.90;;;;;;;10.30;88.98;101769.59;5057117;27;97015;-29
2023/01/05 00:25:19;;;;;;;1.43;0.87;;;;;;;10.28;88.93;101776.00;5055870;27;96629;-29
2023/01/05 00:27:47;;;;;;;10.27;1.52;;;;;;;10.27;89.10;101760.69;5055786;27;96876;-29
2023/01/05 00:30:15;;;;;;;4.63;1.45;;;;;;;10.27;88.46;101768.81;5055487;27;100910;-29
2023/01/05 00:32:41;;;;;;;7.88;1.27;;;;;;;10.27;88.92;101766.13;5055395;27;100919;-32
2023/01/05 00:35:07;;;;;;;6.00;1.10;;;;;;;10.23;89.30;101772.63;5055318;27;96792;-29
2023/01/05 00:37:35;;;;;;;8.43;1.35;;;;;;;10.23;89.33;101773.50;5055720;27;96816;-29
2023/01/05 00:40:00;;;;;;;8.55;1.58;;;;;;;10.20;89.19;101774.53;5056468;27;97029;-30
2023/01/05 00:42:26;;;;;;;4.75;1.35;;;;;;;10.19;89.34;101782.72;5056378;27;99262;-30
2023/01/05 00:44:51;;;;;;;4.22;1.02;;;;;;;10.22;89.21;101787.97;5057068;27;96482;-28
2023/01/05 00:47:16;;;;;;;4.65;1.17;;;;;;;10.23;89.37;101795.16;5057157;27;96735;-28
2023/01/05 00:49:42;;;;;;;6.07;1.10;;;;;;;10.24;89.71;101801.47;5056700;27;98073;-29
2023/01/05 00:52:07;;;;;;;7.47;1.35;;;;;;;10.25;89.35;101804.13;5056812;27;98998;-29
2023/01/05 00:54:33;;;;;;;11.82;1.33;;;;;;;10.21;89.72;101810.59;5056937;27;96676;-29
2023/01/05 00:56:59;;;;;;;11.95;1.60;;;;;;;10.23;89.87;101794.31;5056391;27;96865;-30
2023/01/05 00:59:24;;;;;;;3.88;0.80;;;;;;;10.20;89.76;101790.78;5055882;27;99265;-29
2023/01/05 01:01:53;;;;;;;5.40;1.15;;;;;;;10.20;89.92;101793.50;5056277;27;103611;-28
2023/01/05 01:04:19;;;;;;;10.65;1.42;;;;;;;10.17;89.95;101806.25;5055240;27;96632;-29
2023/01/05 01:06:45;;;;;;;9.48;1.52;;;;;;;10.19;90.02;101815.19;5055362;27;96827;-30
2023/01/05 01:09:11;;;;;;;7.53;1.60;;;;;;;10.16;90.09;101799.09;5054775;27;99071;-29
2023/01/05 01:11:36;;;;;;;5.47;1.35;;;;;;;10.16;90.37;101805.41;5054718;27;100514;-29
2023/01/05 01:14:04;;;;;;;6.38;1.17;;;;;;;10.14;90.50;101801.88;5056566;27;96551;-29
2023/01/05 01:16:29;;;;;;;4.05;1.08;;;;;;;10.18;90.47;101808.91;5055445;27;96816;-29
2023/01/05 01:18:55;;;;;;;5.85;1.00;;;;;;;10.16;90.57;101813.50;5055976;27;97405;-30
2023/01/05 01:21:20;;;;;;;8.18;1.27;;;;;;;10.13;90.62;101815.47;5056038;27;99412;-28
2023/01/05 01:23:46;;;;;;;8.43;1.27;;;;;;;10.14;90.79;101823.53;5055773;27;96692;-29
2023/01/05 01:26:12;;;;;;;5.90;0.85;;;;;;;10.15;90.76;101817.19;5055788;27;96870;-28
2023/01/05 01:28:39;;;;;;;10.30;1.23;;;;;;;10.15;90.74;101829.81;5054489;27;100925;-28
2023/01/05 01:31:05;;;;;;;8.02;1.58;;;;;;;10.16;90.83;101837.00;5055880;27;97233;-29
2023/01/05 01:33:31;;;;;;;8.52;1.30;;;;;;;10.16;90.82;101837.88;5055057;27;96604;-28
2023/01/05 01:35:57;;;;;;;7.10;1.30;;;;;;;10.17;90.75;101845.03;5054902;27;96697;-29
2023/01/05 01:38:22;;;;;;;4.22;0.85;;;;;;;10.15;90.92;101846.06;5055634;27;98965;-30
2023/01/05 01:40:49;;;;;;;10.63;1.38;;;;;;;10.16;90.84;101848.72;5056108;27;97763;-29
2023/01/05 01:43:37;;;;;;;7.70;1.15;;;;;;;10.17;90.81;101834.22;5054649;27;96592;-29
2023/01/05 01:46:03;;;;;;;4.68;1.50;;;;;;;10.16;90.65;101842.41;5053986;27;109567;-32
2023/01/05 01:48:28;;;;;;;8.60;1.20;;;;;;;10.18;90.72;101851.38;5055072;27;99001;-29
2023/01/05 01:50:55;;;;;;;4.78;0.90;;;;;;;10.15;90.82;101849.66;5055436;27;98975;-29
2023/01/05 01:53:24;;;;;;;4.95;0.93;;;;;;;10.14;90.55;101847.03;5055883;27;96801;-29
2023/01/05 01:55:52;;;;;;;3.03;0.70;;;;;;;10.13;90.43;101847.94;5055758;27;96795;-29
2023/01/05 01:58:21;;;;;;;10.63;1.52;;;;;;;10.10;90.88;101867.91;5054055;27;101126;-29
2023/01/05 02:00:47;;;;;;;4.68;1.60;;;;;;;10.09;90.89;101855.34;5053979;27;100717;-29
2023/01/05 02:03:13;;;;;;;5.38;1.80;;;;;;;10.10;90.74;101854.38;5055954;27;96574;-29
2023/01/05 02:05:38;;;;;;;8.77;1.55;;;;;;;10.06;91.07;101852.78;5054452;27;96842;-29
2023/01/05 02:08:12;;;;;;;6.82;1.60;;;;;;;10.07;90.92;101859.06;5055183;27;98275;-29
2023/01/05 02:11:14;;;;;;;4.38;0.80;;;;;;;10.04;90.74;101868.19;5053928;27;101283;-29
2023/01/05 02:13:57;;;;;;;5.85;0.90;;;;;;;10.04;91.12;101865.50;5055666;27;96582;-28
2023/01/05 02:16:38;;;;;;;6.03;1.50;;;;;;;10.01;90.98;101854.81;5054110;27;96762;-29
2023/01/05 02:19:24;;;;;;;10.82;1.55;;;;;;;10.02;90.71;101853.84;5055431;27;97854;-29
2023/01/05 02:21:59;;;;;;;6.43;1.08;;;;;;;10.00;90.99;101863.84;5055102;27;97489;-30
2023/01/05 02:25:02;;;;;;;1.58;0.65;;;;;;;9.99;90.85;101862.97;5053976;27;96711;-29
2023/01/05 02:27:30;;;;;;;8.55;1.48;;;;;;;9.99;90.80;101856.69;5055082;27;96916;-29
2023/01/05 02:30:20;;;;;;;2.67;0.60;;;;;;;9.98;90.91;101863.91;5054192;27;97970;-29
2023/01/05 02:32:59;;;;;;;3.05;0.73;;;;;;;9.94;90.61;101847.91;5055137;27;99385;-29
2023/01/05 02:35:42;;;;;;;11.95;1.50;;;;;;;9.97;90.65;101861.28;5054070;27;96599;-29
2023/01/05 02:38:32;;;;;;;2.53;0.75;;;;;;;9.95;90.73;101855.06;5055124;27;96598;-29
2023/01/05 02:41:08;;;;;;;6.18;1.02;;;;;;;9.92;90.81;101852.50;5054513;27;97380;-30
2023/01/05 02:43:34;;;;;;;7.57;0.80;;;;;;;9.93;91.04;101852.41;5055399;27;97899;-29
2023/01/05 02:45:59;;;;;;;6.25;1.10;;;;;;;9.92;90.94;101861.47;5055267;27;96554;-29
2023/01/05 02:48:25;;;;;;;5.07;1.10;;;;;;;9.93;91.18;101862.34;5054924;27;97549;-29
2023/01/05 02:51:00;;;;;;;6.18;1.70;;;;;;;9.97;90.78;101869.41;5054829;27;97435;-29
2023/01/05 02:53:35;;;;;;;2.28;0.88;;;;;;;9.97;90.69;101861.28;5053287;27;98889;-29
2023/01/05 02:56:12;;;;;;;8.32;1.27;;;;;;;9.99;90.88;101870.22;5053582;27;96612;-29
2023/01/05 02:59:02;;;;;;;4.50;1.13;;;;;;;10.01;90.88;101868.34;5055637;27;96668;-30
2023/01/05 03:01:38;;;;;;;6.53;1.17;;;;;;;10.00;90.43;101871.97;5053141;27;101183;-29
2023/01/05 03:04:19;;;;;;;6.55;1.15;;;;;;;10.03;90.52;101869.13;5053292;27;100792;-28
2023/01/05 03:06:55;;;;;;;8.40;1.17;;;;;;;10.00;90.52;101863.84;5053012;27;96513;-29
2023/01/05 03:09:25;;;;;;;7.97;1.63;;;;;;;10.03;90.63;101869.13;5054975;27;96572;-29
2023/01/05 03:15:17;;;;;;;13.30;1.58;;;;;;;10.04;90.48;101867.31;5054917;27;96902;-29
2023/01/05 03:17:46;;;;;;;6.03;0.75;;;;;;;10.05;90.80;101861.81;5053345;27;96665;-29
2023/01/05 03:20:14;;;;;;;4.32;0.82;;;;;;;10.07;90.77;101864.47;5053358;27;96863;-29
2023/01/05 03:37:20;;;;;;;6.20;0.98;;;;;;;10.06;91.00;101885.25;5054523;27;96870;-28
2023/01/05 03:39:46;;;;;;;4.07;0.70;;;;;;;10.05;91.20;101886.19;5045005;27;96682;-29
2023/01/05 03:42:14;;;;;;;7.60;0.75;;;;;;;10.07;91.23;101895.13;5055834;27;96909;-29
2023/01/05 03:44:42;;;;;;;8.75;0.85;;;;;;;10.05;91.13;101880.78;5056109;27;101041;-29
2023/01/05 03:47:08;;;;;;;8.70;1.27;;;;;;;10.06;91.24;101890.66;5056121;27;100958;-29
2023/01/05 03:49:33;;;;;;;3.65;1.02;;;;;;;10.09;91.05;101890.53;5057811;27;96601;-29
2023/01/05 03:51:59;;;;;;;13.70;1.45;;;;;;;10.10;91.30;101892.28;5057992;27;96732;-29
2023/01/05 03:54:24;;;;;;;11.02;1.30;;;;;;;10.09;91.41;101887.81;5057525;27;97848;-29
2023/01/05 03:56:49;;;;;;;5.82;1.13;;;;;;;10.09;91.62;101890.53;5056893;27;110059;-29
2023/01/05 03:59:14;;;;;;;6.05;1.42;;;;;;;10.09;91.53;101895.06;5057258;27;96559;-29
2023/01/05 04:01:40;;;;;;;5.70;0.77;;;;;;;10.07;91.73;101896.97;5057894;27;96759;-30
2023/01/05 04:04:05;;;;;;;8.18;0.73;;;;;;;10.07;91.53;101886.13;5057541;27;97074;-29
2023/01/05 04:06:31;;;;;;;9.80;1.25;;;;;;;10.10;91.60;101899.53;5057116;27;97771;-30
2023/01/05 04:08:56;;;;;;;9.68;1.15;;;;;;;10.06;91.76;101893.38;5057779;27;96463;-29
2023/01/05 04:11:23;;;;;;;6.30;1.20;;;;;;;10.10;91.68;101902.22;5057621;27;96701;-28
2023/01/05 04:13:49;;;;;;;6.75;1.50;;;;;;;10.11;91.68;101907.59;5055832;27;101139;-29
2023/01/05 04:16:15;;;;;;;1.10;0.45;;;;;;;10.08;91.69;101891.50;5057540;27;97548;-29
2023/01/05 04:18:40;;;;;;;7.43;0.75;;;;;;;10.08;91.95;101896.91;5056003;27;96635;-28
2023/01/05 04:21:06;;;;;;;6.47;1.00;;;;;;;10.06;92.03;101887.06;5057427;27;96639;-29
2023/01/05 04:23:32;;;;;;;11.15;1.63;;;;;;;10.07;92.17;101891.53;5054740;27;100823;-29
2023/01/05 04:25:57;;;;;;;2.85;1.00;;;;;;;10.06;91.82;101881.66;5056686;27;97864;-29
2023/01/05 04:28:23;;;;;;;5.05;1.35;;;;;;;10.05;92.19;101891.59;5055911;27;96608;-29
2023/01/05 04:30:51;;;;;;;14.52;1.33;;;;;;;10.04;92.24;101889.84;5057315;27;96732;-29
2023/01/05 04:33:17;;;;;;;6.20;1.58;;;;;;;10.04;92.48;101889.84;5055337;27;100893;-29
2023/01/05 04:35:42;;;;;;;6.68;1.10;;;;;;;10.06;92.27;101893.38;5054997;27;101267;-29
2023/01/05 04:38:07;;;;;;;2.40;0.90;;;;;;;10.09;92.35;101892.38;5056991;27;96677;-29
2023/01/05 04:40:33;;;;;;;9.48;1.05;;;;;;;10.09;92.31;101901.34;5057674;27;96915;-29
2023/01/05 04:42:58;;;;;;;4.68;1.00;;;;;;;10.10;92.17;101903.09;5056969;27;97956;-29
2023/01/05 04:45:23;;;;;;;7.45;1.33;;;;;;;10.09;92.11;101895.94;5056900;27;97405;-29
2023/01/05 04:47:50;;;;;;;5.93;1.23;;;;;;;10.07;92.18;101899.66;5056450;27;96597;-31
2023/01/05 04:50:16;;;;;;;8.77;1.48;;;;;;;10.08;92.21;101893.28;5055458;27;96905;-29
2023/01/05 04:52:41;;;;;;;10.68;1.05;;;;;;;10.07;92.38;101903.25;5055975;27;97955;-29
2023/01/05 04:55:07;;;;;;;12.35;1.70;;;;;;;10.09;91.99;101900.50;5056406;27;105466;-30
2023/01/05 04:57:32;;;;;;;9.48;0.77;;;;;;;10.09;92.14;101906.78;5057011;27;96652;-29
2023/01/05 04:59:57;;;;;;;5.50;0.90;;;;;;;10.09;92.31;101906.78;5056882;27;96771;-31
2023/01/05 05:02:23;;;;;;;6.28;1.27;;;;;;;10.10;92.27;101907.66;5056100;27;110193;-29
2023/01/05 05:04:48;;;;;;;11.32;1.33;;;;;;;10.08;92.49;101910.44;5055234;27;99371;-30
2023/01/05 05:07:13;;;;;;;10.93;1.55;;;;;;;10.08;92.63;101915.84;5056427;27;96879;-29
2023/01/05 05:09:39;;;;;;;6.47;1.13;;;;;;;10.08;92.54;101920.38;5056612;27;96774;-29
2023/01/05 05:12:04;;;;;;;8.98;0.95;;;;;;;10.07;92.50;101924.91;5055842;27;97955;-29
2023/01/05 05:14:29;;;;;;;8.75;0.77;;;;;;;10.08;92.66;101923.06;5056257;27;97872;-29
2023/01/05 05:16:55;;;;;;;6.57;1.25;;;;;;;10.05;92.76;101926.78;5056791;27;96555;-29
2023/01/05 05:19:20;;;;;;;8.18;1.25;;;;;;;10.08;92.75;101925.78;5056228;27;102602;-30
2023/01/05 05:21:45;;;;;;;6.20;1.20;;;;;;;10.03;92.86;101914.25;5056103;27;97838;-29
2023/01/05 05:24:11;;;;;;;8.68;1.58;;;;;;;10.00;92.98;101916.16;5056636;27;97199;-29
2023/01/05 05:26:36;;;;;;;6.40;1.58;;;;;;;10.04;92.78;101922.34;5056253;27;96759;-29
2023/01/05 05:29:01;;;;;;;5.88;0.95;;;;;;;10.00;92.71;101924.28;5056775;27;96810;-28
2023/01/05 05:31:27;;;;;;;13.75;1.08;;;;;;;10.00;92.93;101928.81;5055728;27;99214;-29
2023/01/05 05:33:53;;;;;;;1.50;0.52;;;;;;;10.04;92.98;101941.28;5054339;27;101301;-29
2023/01/05 05:36:18;;;;;;;1.13;0.60;;;;;;;10.02;93.08;101954.00;5055953;27;96498;-29
2023/01/05 05:38:43;;;;;;;4.93;1.23;;;;;;;10.03;92.93;101960.28;5055968;27;96882;-30
2023/01/05 05:41:09;;;;;;;10.45;1.38;;;;;;;10.02;93.15;101954.00;5055609;27;98912;-32
2023/01/05 05:43:35;;;;;;;7.22;1.13;;;;;;;10.04;92.90;101972.91;5055963;27;98387;-29
2023/01/05 05:46:00;;;;;;;11.88;1.30;;;;;;;10.00;92.96;101959.47;5056241;27;96717;-30
2023/01/05 05:48:25;;;;;;;6.03;1.05;;;;;;;10.03;92.98;101966.56;5056164;27;96800;-31
2023/01/05 05:50:51;;;;;;;5.95;0.77;;;;;;;10.03;92.57;101965.69;5055546;27;100284;-29
2023/01/05 05:53:16;;;;;;;8.48;1.15;;;;;;;10.02;92.88;101970.25;5055961;27;97812;-30
2023/01/05 05:55:41;;;;;;;9.75;1.67;;;;;;;10.03;92.90;101974.69;5056097;27;96562;-29
2023/01/05 05:58:07;;;;;;;5.13;1.02;;;;;;;10.03;92.95;101974.69;5055742;27;96809;-29
2023/01/05 06:00:33;;;;;;;7.13;1.10;;;;;;;10.05;92.93;101997.16;5054815;27;99912;-29
2023/01/05 06:02:58;;;;;;;6.93;1.33;;;;;;;10.06;92.86;101996.25;5055661;27;97878;-29
2023/01/05 06:05:23;;;;;;;7.25;0.80;;;;;;;10.03;92.72;101988.22;5054571;27;96621;-28
2023/01/05 06:07:49;;;;;;;3.22;0.77;;;;;;;10.05;92.81;101989.06;5055582;27;96908;-29
2023/01/05 06:10:14;;;;;;;3.25;0.98;;;;;;;10.04;92.87;101981.00;5055129;27;99372;-29
2023/01/05 06:12:39;;;;;;;7.68;1.10;;;;;;;10.06;92.64;101987.22;5055310;27;97736;-29
2023/01/05 06:15:05;;;;;;;9.70;1.45;;;;;;;10.04;92.67;101991.84;5055492;27;96747;-28
2023/01/05 06:17:31;;;;;;;8.38;1.10;;;;;;;10.07;92.60;102000.69;5054608;27;96908;-29
2023/01/05 06:19:56;;;;;;;8.85;1.40;;;;;;;10.07;92.63;101991.72;5055387;27;101089;-29
2023/01/05 06:22:21;;;;;;;8.80;0.82;;;;;;;10.06;92.23;101996.25;5054939;27;109921;-28
2023/01/05 06:24:46;;;;;;;3.22;0.90;;;;;;;10.06;92.47;102000.75;5055124;27;96566;-30
2023/01/05 06:27:12;;;;;;;6.28;1.10;;;;;;;10.04;92.72;102005.38;5054865;27;96800;-29
2023/01/05 06:29:37;;;;;;;7.75;1.85;;;;;;;10.04;92.47;102008.97;5055122;27;97924;-29
2023/01/05 06:32:03;;;;;;;6.32;1.13;;;;;;;10.05;92.52;102002.59;5055064;27;97869;-28
2023/01/05 06:34:28;;;;;;;6.82;0.98;;;;;;;10.06;92.48;102008.88;5055096;27;96773;-29
2023/01/05 06:36:55;;;;;;;9.20;0.90;;;;;;;10.06;92.45;102017.00;5055402;27;96894;-29
2023/01/05 06:39:20;;;;;;;7.07;1.10;;;;;;;10.03;92.35;102014.41;5054598;27;97895;-29
2023/01/05 06:41:45;;;;;;;12.23;1.45;;;;;;;10.03;92.33;102012.59;5055339;27;98550;-30
2023/01/05 06:44:11;;;;;;;7.28;1.20;;;;;;;10.04;92.30;102019.78;5055350;27;96539;-30
2023/01/05 06:46:36;;;;;;;3.28;0.95;;;;;;;9.99;92.01;102016.38;5055211;27;96870;-30
2023/01/05 06:49:01;;;;;;;5.85;0.98;;;;;;;9.98;92.23;102018.19;5054362;27;102026;-30
2023/01/05 06:51:27;;;;;;;5.35;1.17;;;;;;;10.00;92.30;102020.84;5054902;27;97808;-29
2023/01/05 06:53:52;;;;;;;5.32;0.82;;;;;;;10.02;92.06;102021.66;5054995;27;96526;-29
2023/01/05 06:56:17;;;;;;;7.10;0.93;;;;;;;10.00;92.27;102026.25;5055164;27;96806;-29
2023/01/05 06:58:43;;;;;;;6.47;1.77;;;;;;;10.01;92.26;102030.75;5054939;27;97859;-28
2023/01/05 07:01:08;;;;;;;9.02;1.73;;;;;;;9.98;92.13;102029.00;5054543;27;98728;-32
2023/01/05 07:03:33;;;;;;;4.72;1.00;;;;;;;10.00;92.10;102031.66;5054762;27;96840;-30
2023/01/05 07:05:59;;;;;;;4.28;0.68;;;;;;;9.99;92.01;102035.34;5053938;27;96798;-28
2023/01/05 07:08:24;;;;;;;5.55;1.20;;;;;;;9.98;91.92;102029.00;5054505;27;99295;-28
2023/01/05 07:10:49;;;;;;;4.28;1.20;;;;;;;10.00;91.76;102047.91;5054582;27;97273;-29
2023/01/05 07:13:14;;;;;;;6.40;1.15;;;;;;;10.00;91.84;102050.63;5054478;27;96510;-29
2023/01/05 07:15:40;;;;;;;3.63;1.50;;;;;;;10.01;91.84;102049.69;5055323;27;96899;-29
2023/01/05 07:18:06;;;;;;;3.67;0.98;;;;;;;9.98;91.73;102056.09;5056271;27;100767;-29
2023/01/05 07:20:31;;;;;;;7.07;0.88;;;;;;;9.95;91.51;102049.94;5058281;27;97734;-28
2023/01/05 07:22:56;;;;;;;7.03;1.20;;;;;;;9.97;91.68;102051.63;5058163;27;96579;-29
2023/01/05 07:25:22;;;;;;;3.10;0.82;;;;;;;9.98;91.83;102057.91;5057952;27;100245;-28
2023/01/05 07:27:51;;;;;;;3.95;0.85;;;;;;;9.96;91.59;102047.16;5057748;27;97902;-29
2023/01/05 07:30:16;;;;;;;4.88;1.10;;;;;;;9.95;91.47;102052.63;5056837;27;98859;-29
2023/01/05 07:32:42;;;;;;;8.35;1.52;;;;;;;9.96;91.33;102057.09;5058222;27;96791;-29
2023/01/05 07:35:07;;;;;;;10.18;1.42;;;;;;;9.96;91.28;102062.50;5058322;27;96872;-28
2023/01/05 07:37:33;;;;;;;3.22;0.95;;;;;;;9.96;91.67;102062.50;5055780;27;100750;-30
2023/01/05 07:39:58;;;;;;;6.55;0.80;;;;;;;9.97;91.54;102062.44;5058022;27;97155;-29
2023/01/05 07:42:24;;;;;;;6.18;0.93;;;;;;;9.95;91.78;102066.16;5058170;27;96432;-29
2023/01/05 07:44:51;;;;;;;8.48;0.95;;;;;;;9.93;91.75;102066.22;5056227;27;96649;-29
2023/01/05 07:47:16;;;;;;;6.22;1.05;;;;;;;9.95;91.76;102071.56;5055899;27;100761;-29
2023/01/05 07:49:42;;;;;;;5.53;0.88;;;;;;;9.93;92.02;102065.34;5055334;27;99083;-29
2023/01/05 07:52:07;;;;;;;5.03;0.65;;;;;;;9.91;91.75;102057.28;5056414;27;96634;-29
2023/01/05 07:54:32;;;;;;;7.78;0.98;;;;;;;9.89;91.96;102071.81;5058469;27;96807;-29
2023/01/05 07:56:57;;;;;;;11.30;1.45;;;;;;;9.84;91.79;102074.69;5057631;27;100572;-29
2023/01/05 07:59:23;;;;;;;8.38;1.00;;;;;;;9.84;91.98;102082.81;5057615;27;97783;-29
2023/01/05 08:01:48;;;;;;;4.57;0.70;;;;;;;9.85;92.10;102078.31;5056934;27;96649;-28
2023/01/05 08:04:13;;;;;;;5.03;1.40;;;;;;;9.81;91.96;102079.34;5057664;27;96784;-29
2023/01/05 08:06:39;;;;;;;1.40;0.35;;;;;;;9.83;92.16;102086.47;5057738;27;97339;-29
2023/01/05 08:10:27;;;;;;;6.72;1.20;;;;;;;9.83;92.02;102094.59;5055650;27;104619;-31
2023/01/05 08:11:49;;;;;;;7.80;0.95;;;;;;;9.83;91.95;102088.28;5054838;27;96959;-29
2023/01/05 08:14:15;;;;;;;7.30;1.23;;;;;;;9.84;92.10;102100.88;5055069;27;97788;-30
2023/01/05 08:16:41;;;;;;;4.35;0.98;;;;;;;9.81;92.28;102104.59;5054716;27;98631;-29
2023/01/05 08:19:08;;;;;;;2.58;0.70;;;;;;;9.82;92.57;102100.03;5054752;27;99863;-32
2023/01/05 08:21:33;;;;;;;8.73;1.13;;;;;;;9.85;92.27;102108.06;5053300;27;96879;-29
2023/01/05 08:23:59;;;;;;;4.60;1.00;;;;;;;9.87;92.18;102112.47;5055805;27;96733;-28
2023/01/05 08:26:24;;;;;;;3.95;0.95;;;;;;;9.87;92.29;102112.47;5055733;27;99224;-29
2023/01/05 08:28:51;;;;;;;6.88;1.02;;;;;;;9.90;92.24;102116.88;5054610;27;100662;-29
2023/01/05 08:31:20;;;;;;;4.45;1.05;;;;;;;9.92;92.22;102121.31;5057228;27;96613;-28
2023/01/05 08:33:46;;;;;;;2.85;1.02;;;;;;;9.91;92.18;102121.34;5055752;27;96911;-29
2023/01/05 08:36:15;;;;;;;4.80;0.57;;;;;;;9.92;92.01;102128.53;5056797;27;101019;-29
2023/01/05 08:38:46;;;;;;;7.03;1.50;;;;;;;9.93;91.83;102133.00;5056528;27;97887;-30
2023/01/05 08:41:15;;;;;;;10.15;1.45;;;;;;;9.94;92.03;102137.50;5057136;27;96471;-28
2023/01/05 08:43:40;;;;;;;8.85;0.93;;;;;;;9.95;91.96;102126.59;5055681;27;96843;-29
2023/01/05 08:46:06;;;;;;;3.42;0.95;;;;;;;10.00;92.04;102137.25;5056635;27;98853;-29
2023/01/05 08:48:31;;;;;;;8.50;1.23;;;;;;;9.97;91.93;102135.53;5056707;27;97328;-29
2023/01/05 08:51:02;;;;;;;12.43;1.25;;;;;;;9.98;91.85;102152.66;5056582;27;96540;-29
2023/01/05 08:53:28;;;;;;;8.68;1.30;;;;;;;10.02;91.81;102162.44;5057092;27;96688;-30
2023/01/05 08:55:53;;;;;;;5.75;1.02;;;;;;;10.01;91.58;102152.56;5056446;27;99051;-28
2023/01/05 08:58:18;;;;;;;4.05;0.93;;;;;;;10.00;91.94;102150.78;5056385;27;104481;-28
2023/01/05 09:00:43;;;;;;;12.02;1.48;;;;;;;10.06;91.70;102163.19;5056729;27;96725;-29
2023/01/05 09:03:09;;;;;;;5.80;1.02;;;;;;;10.07;91.59;102164.97;5056585;27;96825;-29
2023/01/05 09:05:34;;;;;;;4.90;0.95;;;;;;;10.07;91.58;102156.84;5056217;27;104183;-28
2023/01/05 09:07:59;;;;;;;7.68;1.60;;;;;;;10.08;91.51;102147.75;5055568;27;100981;-29
2023/01/05 09:10:25;;;;;;;6.45;1.15;;;;;;;10.11;91.41;102155.78;5056550;27;96721;-30
2023/01/05 09:12:50;;;;;;;4.70;1.15;;;;;;;10.12;91.49;102155.72;5056493;27;96775;-29
2023/01/05 09:15:15;;;;;;;4.03;0.93;;;;;;;10.12;91.30;102150.28;5055922;27;97949;-29
2023/01/05 09:17:41;;;;;;;3.63;0.80;;;;;;;10.15;91.34;102149.28;5056024;27;99363;-29
2023/01/05 09:20:07;;;;;;;3.53;1.27;;;;;;;10.17;91.29;102163.66;5056284;27;96664;-29
2023/01/05 09:22:34;;;;;;;6.68;0.88;;;;;;;10.21;91.21;102163.47;5054637;27;96949;-29
2023/01/05 09:25:00;;;;;;;8.50;1.42;;;;;;;10.21;91.11;102160.78;5055832;27;99506;-29
2023/01/05 09:27:25;;;;;;;12.45;1.50;;;;;;;10.24;91.02;102175.13;5055521;27;97436;-29
2023/01/05 09:29:50;;;;;;;14.02;1.30;;;;;;;10.28;90.96;102177.72;5056182;27;96581;-29
2023/01/05 09:32:16;;;;;;;7.93;1.27;;;;;;;10.30;91.13;102185.78;5056264;27;98218;-29
2023/01/05 09:34:41;;;;;;;4.68;1.38;;;;;;;10.29;91.08;102184.88;5055840;27;99363;-30
2023/01/05 09:37:07;;;;;;;9.82;1.60;;;;;;;10.31;91.01;102185.69;5056048;27;97796;-28
2023/01/05 09:39:32;;;;;;;5.75;1.05;;;;;;;10.30;90.97;102185.78;5055544;27;96531;-29
2023/01/05 09:42:01;;;;;;;2.80;0.85;;;;;;;10.30;90.64;102193.91;5055890;27;96816;-29
2023/01/05 09:44:34;;;;;;;4.45;1.25;;;;;;;10.32;91.15;102186.56;5054454;27;100956;-29
2023/01/05 09:47:10;;;;;;;5.30;0.80;;;;;;;10.33;91.30;102204.63;5055628;27;99357;-29
2023/01/05 09:49:35;;;;;;;13.52;1.80;;;;;;;10.35;91.22;102203.59;5054820;27;96616;-29
2023/01/05 09:52:08;;;;;;;9.43;1.38;;;;;;;10.34;90.96;102201.81;5054468;27;96889;-29
2023/01/05 09:54:34;;;;;;;8.75;1.48;;;;;;;10.35;91.25;102186.47;5054071;27;100787;-28
2023/01/05 09:57:00;;;;;;;5.68;1.05;;;;;;;10.40;91.10;102203.44;5054561;27;101383;-30
2023/01/05 09:59:30;;;;;;;8.50;1.40;;;;;;;10.50;90.91;102209.38;5054645;27;96850;-29
2023/01/05 10:01:59;;;;;;;10.70;1.67;;;;;;;10.57;90.78;102209.06;5054481;27;96827;-29
2023/01/05 10:04:28;;;;;;;14.32;1.23;;;;;;;10.68;90.73;102211.34;5053495;27;100874;-29
2023/01/05 10:07:00;;;;;;;8.48;1.50;;;;;;;10.77;90.10;102210.09;5053569;27;101247;-28
2023/01/05 10:09:40;;;;;;;7.10;1.13;;;;;;;10.86;89.34;102207.00;5054456;27;96596;-29
2023/01/05 10:15:12;;;;;;;6.55;1.10;;;;;;;10.95;89.83;102214.75;5054999;27;97160;-29
2023/01/05 10:17:38;;;;;;;6.15;1.35;;;;;;;10.99;89.65;102201.97;5053929;27;101080;-29
2023/01/05 10:20:24;;;;;;;15.00;1.77;;;;;;;11.02;89.49;102205.44;5055402;27;96444;-29
2023/01/05 10:23:04;;;;;;;10.38;1.17;;;;;;;11.04;89.37;102217.09;5054345;27;96840;-30
2023/01/05 10:25:37;;;;;;;8.23;1.17;;;;;;;11.04;89.49;102216.22;5055381;27;97973;-29
2023/01/05 10:28:39;;;;;;;8.23;2.13;;;;;;;11.03;89.55;102211.72;5053399;27;100181;-30
2023/01/05 10:31:25;;;;;;;9.55;1.40;;;;;;;11.00;89.53;102210.03;5053484;27;97421;-29
2023/01/05 10:33:52;;;;;;;10.13;1.17;;;;;;;10.95;89.61;102206.63;5012683;27;96832;-29
2023/01/05 10:37:00;;;;;;;9.02;1.63;;;;;;;10.98;89.59;102211.03;5053648;27;100889;-29
2023/01/05 10:39:48;;;;;;;4.93;1.20;;;;;;;10.91;89.91;102215.81;5053457;27;98951;-29
2023/01/05 10:42:28;;;;;;;9.32;1.58;;;;;;;10.98;89.97;102211.03;5055453;27;96519;-29
2023/01/05 10:44:57;;;;;;;6.60;1.52;;;;;;;10.99;90.02;102219.13;5053839;27;96737;-29
2023/01/05 10:47:26;;;;;;;9.02;1.75;;;;;;;11.01;89.75;102221.75;5054641;27;99521;-29
2023/01/05 10:49:52;;;;;;;5.60;1.50;;;;;;;10.99;89.89;102223.66;5055101;27;98632;-28
2023/01/05 10:52:20;;;;;;;6.05;1.33;;;;;;;11.04;89.70;102233.38;5053104;27;96552;-29
2023/01/05 10:54:51;;;;;;;4.70;1.20;;;;;;;11.07;89.51;102226.94;5053693;27;96913;-29
2023/01/05 10:57:31;;;;;;;6.32;1.30;;;;;;;11.07;89.71;102226.94;5054288;27;97633;-29
2023/01/05 11:00:00;;;;;;;10.10;1.13;;;;;;;11.07;89.60;102226.06;5053195;27;98987;-29
2023/01/05 11:02:28;;;;;;;4.90;1.50;;;;;;;11.05;89.50;102217.97;5053524;27;96596;-28
2023/01/05 11:05:02;;;;;;;7.10;1.25;;;;;;;11.11;89.55;102216.81;5053677;27;96532;-29
2023/01/05 11:07:27;;;;;;;3.17;1.23;;;;;;;11.28;89.05;102219.72;5054606;27;97428;-30
2023/01/05 11:09:53;;;;;;;6.25;1.48;;;;;;;11.36;88.91;102222.97;5054643;27;97360;-30
2023/01/05 11:12:24;;;;;;;9.52;1.42;;;;;;;11.37;88.43;102211.19;5054923;27;96661;-29
2023/01/05 11:14:55;;;;;;;11.10;1.40;;;;;;;11.40;88.12;102210.19;5053846;27;96799;-28
2023/01/05 11:17:23;;;;;;;7.70;1.13;;;;;;;11.35;88.00;102207.66;5054571;27;97521;-30
2023/01/05 11:19:54;;;;;;;9.70;1.23;;;;;;;11.38;88.15;102210.25;5052920;27;101126;-30
2023/01/05 11:22:38;;;;;;;9.18;1.13;;;;;;;11.68;87.79;102205.31;5052649;27;96895;-29
2023/01/05 11:25:29;;;;;;;7.63;1.35;;;;;;;12.00;86.50;102204.84;5053253;27;96791;-29
2023/01/05 11:28:12;;;;;;;9.07;1.33;;;;;;;12.13;85.55;102191.56;5052689;27;100852;-29
2023/01/05 11:30:45;;;;;;;5.57;1.15;;;;;;;12.18;84.59;102184.97;5053011;27;100792;-29
2023/01/05 11:33:13;;;;;;;9.70;1.55;;;;;;;12.20;85.01;102196.63;5054750;27;96622;-29
2023/01/05 11:35:39;;;;;;;12.73;1.02;;;;;;;12.22;84.65;102181.16;5053230;27;96836;-29
2023/01/05 11:38:05;;;;;;;15.43;1.33;;;;;;;12.20;84.44;102190.31;5054352;27;98075;-29
2023/01/05 11:40:34;;;;;;;3.33;1.05;;;;;;;12.24;84.80;102194.66;5054220;27;98887;-29
2023/01/05 11:43:09;;;;;;;3.30;0.90;;;;;;;12.28;84.53;102188.16;5053082;27;96631;-29
2023/01/05 11:45:40;;;;;;;5.68;1.38;;;;;;;12.32;84.71;102187.94;5053201;27;96732;-29
2023/01/05 11:48:07;;;;;;;4.55;1.15;;;;;;;12.31;84.29;102188.88;5052186;27;101141;-28
2023/01/05 11:50:45;;;;;;;5.55;0.93;;;;;;;12.15;83.93;102185.09;5052648;27;101240;-29
2023/01/05 11:53:22;;;;;;;9.55;1.45;;;;;;;11.98;84.96;102193.16;5052924;27;96771;-29
2023/01/05 11:55:58;;;;;;;6.07;0.93;;;;;;;11.78;85.49;102186.78;5052986;27;96641;-29
2023/01/05 11:58:40;;;;;;;12.40;1.05;;;;;;;11.78;85.55;102188.63;5054075;27;97147;-29
2023/01/05 12:01:05;;;;;;;;;;;;;;;11.74;86.25;102184.28;5054546;27;97973;-29
2023/01/05 12:03:54;;;;;;;5.17;1.00;;;;;;;11.72;86.30;102192.47;5055775;27;96738;-30